sensor_id;sensor_type;location;lat;lon;timestamp;temperature;humidity
22161;DHT22;49035;48.812;11.762;2024-02-26T00:02:23;1.20;99.90
22161;DHT22;49035;48.812;11.762;2024-02-26T00:04:48;0.80;99.90
22161;DHT22;49035;48.812;11.762;2024-02-26T00:07:15;0.90;99.90
22161;DHT22;49035;48.812;11.762;2024-02-26T00:09:41;1.20;99.90
22161;DHT22;49035;48.812;11.762;2024-02-26T00:12:07;0.70;99.90
22161;DHT22;49035;48.812;11.762;2024-02-26T00:14:32;0.60;99.90
22161;DHT22;49035;48.812;11.762;2024-02-26T00:16:58;1.20;99.90
22161;DHT22;49035;48.812;11.762;2024-02-26T00:19:24;0.80;99.90
22161;DHT22;49035;48.812;11.762;2024-02-26T00:21:49;1.00;99.90
22161;DHT22;49035;48.812;11.762;2024-02-26T00:24:15;0.70;99.90
22161;DHT22;49035;48.812;11.762;2024-02-26T00:26:44;0.70;99.90
22161;DHT22;49035;48.812;11.762;2024-02-26T00:29:10;0.60;99.90
22161;DHT22;49035;48.812;11.762;2024-02-26T00:31:36;0.30;99.90
22161;DHT22;49035;48.812;11.762;2024-02-26T00:34:02;0.70;99.90
22161;DHT22;49035;48.812;11.762;2024-02-26T00:36:28;0.90;99.90
22161;DHT22;49035;48.812;11.762;2024-02-26T00:38:53;0.90;99.90
22161;DHT22;49035;48.812;11.762;2024-02-26T00:41:20;0.30;99.90
22161;DHT22;49035;48.812;11.762;2024-02-26T00:43:51;0.70;99.90
22161;DHT22;49035;48.812;11.762;2024-02-26T00:46:17;-0.20;99.90
22161;DHT22;49035;48.812;11.762;2024-02-26T00:48:43;-0.30;99.90
22161;DHT22;49035;48.812;11.762;2024-02-26T00:51:08;0.40;99.90
22161;DHT22;49035;48.812;11.762;2024-02-26T00:53:34;0.50;99.90
22161;DHT22;49035;48.812;11.762;2024-02-26T00:56:00;-0.40;99.90
22161;DHT22;49035;48.812;11.762;2024-02-26T00:58:26;-0.20;99.90
22161;DHT22;49035;48.812;11.762;2024-02-26T01:00:52;0.20;99.90
22161;DHT22;49035;48.812;11.762;2024-02-26T01:03:18;-0.10;99.90
22161;DHT22;49035;48.812;11.762;2024-02-26T01:05:44;0.00;99.90
22161;DHT22;49035;48.812;11.762;2024-02-26T01:08:09;-0.30;99.90
22161;DHT22;49035;48.812;11.762;2024-02-26T01:10:35;0.10;99.90
22161;DHT22;49035;48.812;11.762;2024-02-26T01:13:01;-0.70;99.90
22161;DHT22;49035;48.812;11.762;2024-02-26T01:15:27;-0.10;99.90
22161;DHT22;49035;48.812;11.762;2024-02-26T01:17:53;-0.60;99.90
22161;DHT22;49035;48.812;11.762;2024-02-26T01:20:19;-0.70;99.90
22161;DHT22;49035;48.812;11.762;2024-02-26T01:22:45;-0.60;99.90
22161;DHT22;49035;48.812;11.762;2024-02-26T01:25:10;-0.80;99.90
22161;DHT22;49035;48.812;11.762;2024-02-26T01:27:37;-0.80;99.90
22161;DHT22;49035;48.812;11.762;2024-02-26T01:30:06;-0.60;99.90
22161;DHT22;49035;48.812;11.762;2024-02-26T01:32:31;-0.70;99.90
22161;DHT22;49035;48.812;11.762;2024-02-26T01:34:57;-0.50;99.90
22161;DHT22;49035;48.812;11.762;2024-02-26T01:37:23;-0.40;99.90
22161;DHT22;49035;48.812;11.762;2024-02-26T01:39:49;-0.10;99.90
22161;DHT22;49035;48.812;11.762;2024-02-26T01:42:14;-0.20;99.90
22161;DHT22;49035;48.812;11.762;2024-02-26T01:44:40;0.00;99.90
22161;DHT22;49035;48.812;11.762;2024-02-26T01:47:08;-1.20;99.90
22161;DHT22;49035;48.812;11.762;2024-02-26T01:49:36;-0.40;99.90
22161;DHT22;49035;48.812;11.762;2024-02-26T01:52:03;-0.60;99.90
22161;DHT22;49035;48.812;11.762;2024-02-26T01:54:30;-0.60;99.90
22161;DHT22;49035;48.812;11.762;2024-02-26T01:56:57;-0.50;99.90
22161;DHT22;49035;48.812;11.762;2024-02-26T01:59:23;-0.80;99.90
22161;DHT22;49035;48.812;11.762;2024-02-26T02:01:54;-0.80;99.90
22161;DHT22;49035;48.812;11.762;2024-02-26T02:04:22;-0.30;99.90
22161;DHT22;49035;48.812;11.762;2024-02-26T02:06:48;-1.20;99.90
22161;DHT22;49035;48.812;11.762;2024-02-26T02:09:14;-0.80;99.90
22161;DHT22;49035;48.812;11.762;2024-02-26T02:11:40;-0.60;99.90
22161;DHT22;49035;48.812;11.762;2024-02-26T02:14:06;-1.50;99.90
22161;DHT22;49035;48.812;11.762;2024-02-26T02:16:31;-0.70;99.90
22161;DHT22;49035;48.812;11.762;2024-02-26T02:18:58;-1.50;99.90
22161;DHT22;49035;48.812;11.762;2024-02-26T02:21:24;-1.30;99.90
22161;DHT22;49035;48.812;11.762;2024-02-26T02:23:50;-1.40;99.90
22161;DHT22;49035;48.812;11.762;2024-02-26T02:26:16;-0.80;99.90
22161;DHT22;49035;48.812;11.762;2024-02-26T02:28:42;-1.10;99.90
22161;DHT22;49035;48.812;11.762;2024-02-26T02:31:08;-0.70;99.90
22161;DHT22;49035;48.812;11.762;2024-02-26T02:33:34;-0.30;99.90
22161;DHT22;49035;48.812;11.762;2024-02-26T02:36:01;-0.80;99.90
22161;DHT22;49035;48.812;11.762;2024-02-26T02:38:26;0.00;99.90
22161;DHT22;49035;48.812;11.762;2024-02-26T02:40:55;-0.10;99.90
22161;DHT22;49035;48.812;11.762;2024-02-26T02:43:21;-0.30;99.90
22161;DHT22;49035;48.812;11.762;2024-02-26T02:45:46;-0.40;99.90
22161;DHT22;49035;48.812;11.762;2024-02-26T02:48:12;-0.40;99.90
22161;DHT22;49035;48.812;11.762;2024-02-26T02:50:38;-0.60;99.90
22161;DHT22;49035;48.812;11.762;2024-02-26T02:53:03;-0.20;99.90
22161;DHT22;49035;48.812;11.762;2024-02-26T02:55:29;-0.50;99.90
22161;DHT22;49035;48.812;11.762;2024-02-26T02:57:55;-0.10;99.90
22161;DHT22;49035;48.812;11.762;2024-02-26T03:00:21;-0.20;99.90
22161;DHT22;49035;48.812;11.762;2024-02-26T03:02:48;-0.30;99.90
22161;DHT22;49035;48.812;11.762;2024-02-26T03:05:14;0.00;99.90
22161;DHT22;49035;48.812;11.762;2024-02-26T03:07:40;0.10;99.90
22161;DHT22;49035;48.812;11.762;2024-02-26T03:10:06;0.00;99.90
22161;DHT22;49035;48.812;11.762;2024-02-26T03:12:33;0.40;99.90
22161;DHT22;49035;48.812;11.762;2024-02-26T03:14:59;-0.10;99.90
22161;DHT22;49035;48.812;11.762;2024-02-26T03:17:26;0.40;99.90
22161;DHT22;49035;48.812;11.762;2024-02-26T03:19:52;0.80;99.90
22161;DHT22;49035;48.812;11.762;2024-02-26T03:22:19;0.50;99.90
22161;DHT22;49035;48.812;11.762;2024-02-26T03:24:46;0.00;99.90
22161;DHT22;49035;48.812;11.762;2024-02-26T03:27:11;0.00;99.90
22161;DHT22;49035;48.812;11.762;2024-02-26T03:29:37;-0.40;99.90
22161;DHT22;49035;48.812;11.762;2024-02-26T03:32:04;-0.40;99.90
22161;DHT22;49035;48.812;11.762;2024-02-26T03:34:29;-0.50;99.90
22161;DHT22;49035;48.812;11.762;2024-02-26T03:36:56;-0.30;99.90
22161;DHT22;49035;48.812;11.762;2024-02-26T03:39:22;-0.20;99.90
22161;DHT22;49035;48.812;11.762;2024-02-26T03:41:48;-0.40;99.90
22161;DHT22;49035;48.812;11.762;2024-02-26T03:44:14;-0.90;99.90
22161;DHT22;49035;48.812;11.762;2024-02-26T03:46:40;-0.40;99.90
22161;DHT22;49035;48.812;11.762;2024-02-26T03:49:08;0.20;99.90
22161;DHT22;49035;48.812;11.762;2024-02-26T03:51:34;0.70;99.90
22161;DHT22;49035;48.812;11.762;2024-02-26T03:54:00;0.30;99.90
22161;DHT22;49035;48.812;11.762;2024-02-26T03:56:26;0.50;99.90
22161;DHT22;49035;48.812;11.762;2024-02-26T03:58:52;-0.50;99.90
22161;DHT22;49035;48.812;11.762;2024-02-26T04:01:18;-0.20;99.90
22161;DHT22;49035;48.812;11.762;2024-02-26T04:03:44;0.30;99.90
22161;DHT22;49035;48.812;11.762;2024-02-26T04:06:10;0.70;99.90
22161;DHT22;49035;48.812;11.762;2024-02-26T04:08:39;0.80;99.90
22161;DHT22;49035;48.812;11.762;2024-02-26T04:11:05;0.70;99.90
22161;DHT22;49035;48.812;11.762;2024-02-26T04:13:33;0.80;99.90
22161;DHT22;49035;48.812;11.762;2024-02-26T04:15:59;0.90;99.90
22161;DHT22;49035;48.812;11.762;2024-02-26T04:18:27;1.40;99.90
22161;DHT22;49035;48.812;11.762;2024-02-26T04:20:52;1.10;99.90
22161;DHT22;49035;48.812;11.762;2024-02-26T04:23:18;1.70;99.90
22161;DHT22;49035;48.812;11.762;2024-02-26T04:25:44;1.70;99.90
22161;DHT22;49035;48.812;11.762;2024-02-26T04:28:10;1.60;99.90
22161;DHT22;49035;48.812;11.762;2024-02-26T04:30:36;1.90;99.90
22161;DHT22;49035;48.812;11.762;2024-02-26T04:33:02;1.70;99.90
22161;DHT22;49035;48.812;11.762;2024-02-26T04:35:28;2.00;99.90
22161;DHT22;49035;48.812;11.762;2024-02-26T04:37:54;2.10;99.90
22161;DHT22;49035;48.812;11.762;2024-02-26T04:40:19;1.60;99.90
22161;DHT22;49035;48.812;11.762;2024-02-26T04:42:45;2.10;99.90
22161;DHT22;49035;48.812;11.762;2024-02-26T04:45:11;1.70;99.90
22161;DHT22;49035;48.812;11.762;2024-02-26T04:47:36;2.20;99.90
22161;DHT22;49035;48.812;11.762;2024-02-26T04:50:02;2.40;99.90
22161;DHT22;49035;48.812;11.762;2024-02-26T04:52:28;1.80;99.90
22161;DHT22;49035;48.812;11.762;2024-02-26T04:54:53;2.30;99.90
22161;DHT22;49035;48.812;11.762;2024-02-26T04:57:21;2.30;99.90
22161;DHT22;49035;48.812;11.762;2024-02-26T04:59:48;2.00;99.90
22161;DHT22;49035;48.812;11.762;2024-02-26T05:02:13;2.40;99.90
22161;DHT22;49035;48.812;11.762;2024-02-26T05:04:39;1.90;99.90
22161;DHT22;49035;48.812;11.762;2024-02-26T05:07:05;2.00;99.90
22161;DHT22;49035;48.812;11.762;2024-02-26T05:09:32;2.70;99.90
22161;DHT22;49035;48.812;11.762;2024-02-26T05:11:57;2.30;99.90
22161;DHT22;49035;48.812;11.762;2024-02-26T05:14:23;1.70;99.90
22161;DHT22;49035;48.812;11.762;2024-02-26T05:16:51;2.50;99.90
22161;DHT22;49035;48.812;11.762;2024-02-26T05:19:17;2.40;99.90
22161;DHT22;49035;48.812;11.762;2024-02-26T05:21:42;2.80;99.90
22161;DHT22;49035;48.812;11.762;2024-02-26T05:24:09;2.70;99.90
22161;DHT22;49035;48.812;11.762;2024-02-26T05:26:35;2.00;99.90
22161;DHT22;49035;48.812;11.762;2024-02-26T05:29:01;2.70;99.90
22161;DHT22;49035;48.812;11.762;2024-02-26T05:31:27;2.60;99.90
22161;DHT22;49035;48.812;11.762;2024-02-26T05:33:54;1.90;99.90
22161;DHT22;49035;48.812;11.762;2024-02-26T05:36:20;2.30;99.90
22161;DHT22;49035;48.812;11.762;2024-02-26T05:38:48;2.50;99.90
22161;DHT22;49035;48.812;11.762;2024-02-26T05:41:17;2.10;99.90
22161;DHT22;49035;48.812;11.762;2024-02-26T05:43:52;2.50;99.90
22161;DHT22;49035;48.812;11.762;2024-02-26T05:46:19;2.30;99.90
22161;DHT22;49035;48.812;11.762;2024-02-26T05:48:46;2.30;99.90
22161;DHT22;49035;48.812;11.762;2024-02-26T05:51:12;2.40;99.90
22161;DHT22;49035;48.812;11.762;2024-02-26T05:53:38;2.00;99.90
22161;DHT22;49035;48.812;11.762;2024-02-26T05:56:04;2.30;99.90
22161;DHT22;49035;48.812;11.762;2024-02-26T05:58:29;2.10;99.90
22161;DHT22;49035;48.812;11.762;2024-02-26T06:00:55;2.40;99.90
22161;DHT22;49035;48.812;11.762;2024-02-26T06:03:21;2.20;99.90
22161;DHT22;49035;48.812;11.762;2024-02-26T06:05:46;2.20;99.90
22161;DHT22;49035;48.812;11.762;2024-02-26T06:08:15;2.20;99.90
22161;DHT22;49035;48.812;11.762;2024-02-26T06:10:40;1.80;99.90
22161;DHT22;49035;48.812;11.762;2024-02-26T06:13:06;2.00;99.90
22161;DHT22;49035;48.812;11.762;2024-02-26T06:15:32;1.50;99.90
22161;DHT22;49035;48.812;11.762;2024-02-26T06:17:58;1.90;99.90
22161;DHT22;49035;48.812;11.762;2024-02-26T06:20:23;1.30;99.90
22161;DHT22;49035;48.812;11.762;2024-02-26T06:22:49;1.60;99.90
22161;DHT22;49035;48.812;11.762;2024-02-26T06:25:15;1.60;99.90
22161;DHT22;49035;48.812;11.762;2024-02-26T06:27:41;1.90;99.90
22161;DHT22;49035;48.812;11.762;2024-02-26T06:30:06;1.90;99.90
22161;DHT22;49035;48.812;11.762;2024-02-26T06:32:34;1.60;99.90
22161;DHT22;49035;48.812;11.762;2024-02-26T06:34:59;1.60;99.90
22161;DHT22;49035;48.812;11.762;2024-02-26T06:37:25;2.00;99.90
22161;DHT22;49035;48.812;11.762;2024-02-26T06:39:51;1.80;99.90
22161;DHT22;49035;48.812;11.762;2024-02-26T06:42:17;2.20;99.90
22161;DHT22;49035;48.812;11.762;2024-02-26T06:44:43;2.20;99.90
22161;DHT22;49035;48.812;11.762;2024-02-26T06:47:08;2.50;99.90
22161;DHT22;49035;48.812;11.762;2024-02-26T06:49:34;2.80;99.90
22161;DHT22;49035;48.812;11.762;2024-02-26T06:52:00;2.40;99.90
22161;DHT22;49035;48.812;11.762;2024-02-26T06:54:25;2.80;99.90
22161;DHT22;49035;48.812;11.762;2024-02-26T06:56:51;2.60;99.90
22161;DHT22;49035;48.812;11.762;2024-02-26T06:59:17;2.80;99.90
22161;DHT22;49035;48.812;11.762;2024-02-26T07:01:43;2.80;99.90
22161;DHT22;49035;48.812;11.762;2024-02-26T07:04:08;2.70;99.90
22161;DHT22;49035;48.812;11.762;2024-02-26T07:06:36;3.00;99.90
22161;DHT22;49035;48.812;11.762;2024-02-26T07:09:02;3.20;99.90
22161;DHT22;49035;48.812;11.762;2024-02-26T07:11:28;3.00;99.90
22161;DHT22;49035;48.812;11.762;2024-02-26T07:13:53;3.00;99.90
22161;DHT22;49035;48.812;11.762;2024-02-26T07:16:19;3.10;99.90
22161;DHT22;49035;48.812;11.762;2024-02-26T07:18:45;3.20;99.90
22161;DHT22;49035;48.812;11.762;2024-02-26T07:21:12;3.20;99.90
22161;DHT22;49035;48.812;11.762;2024-02-26T07:23:37;3.30;99.90
22161;DHT22;49035;48.812;11.762;2024-02-26T07:26:03;3.70;99.90
22161;DHT22;49035;48.812;11.762;2024-02-26T07:28:29;3.70;99.90
22161;DHT22;49035;48.812;11.762;2024-02-26T07:30:54;3.90;99.90
22161;DHT22;49035;48.812;11.762;2024-02-26T07:33:20;4.20;99.90
22161;DHT22;49035;48.812;11.762;2024-02-26T07:35:46;4.40;99.90
22161;DHT22;49035;48.812;11.762;2024-02-26T07:38:12;4.60;99.90
22161;DHT22;49035;48.812;11.762;2024-02-26T07:40:39;4.80;99.90
22161;DHT22;49035;48.812;11.762;2024-02-26T07:43:04;5.10;99.90
22161;DHT22;49035;48.812;11.762;2024-02-26T07:45:30;5.10;99.90
22161;DHT22;49035;48.812;11.762;2024-02-26T07:47:56;5.50;99.90
22161;DHT22;49035;48.812;11.762;2024-02-26T07:50:21;5.90;99.90
22161;DHT22;49035;48.812;11.762;2024-02-26T07:52:47;5.80;99.90
22161;DHT22;49035;48.812;11.762;2024-02-26T07:55:13;5.80;99.90
22161;DHT22;49035;48.812;11.762;2024-02-26T07:57:42;5.80;99.90
22161;DHT22;49035;48.812;11.762;2024-02-26T08:00:08;5.80;99.90
22161;DHT22;49035;48.812;11.762;2024-02-26T08:02:35;5.50;99.90
22161;DHT22;49035;48.812;11.762;2024-02-26T08:05:01;5.50;99.90
22161;DHT22;49035;48.812;11.762;2024-02-26T08:07:26;5.60;99.90
22161;DHT22;49035;48.812;11.762;2024-02-26T08:09:52;5.60;99.90
22161;DHT22;49035;48.812;11.762;2024-02-26T08:12:18;5.30;99.90
22161;DHT22;49035;48.812;11.762;2024-02-26T08:14:44;5.50;99.90
22161;DHT22;49035;48.812;11.762;2024-02-26T08:17:10;5.70;99.90
22161;DHT22;49035;48.812;11.762;2024-02-26T08:19:35;5.60;99.90
22161;DHT22;49035;48.812;11.762;2024-02-26T08:22:02;5.70;99.90
22161;DHT22;49035;48.812;11.762;2024-02-26T08:24:27;5.50;99.90
22161;DHT22;49035;48.812;11.762;2024-02-26T08:26:53;5.60;99.90
22161;DHT22;49035;48.812;11.762;2024-02-26T08:29:19;5.60;99.90
22161;DHT22;49035;48.812;11.762;2024-02-26T08:31:45;6.10;99.90
22161;DHT22;49035;48.812;11.762;2024-02-26T08:34:10;5.60;99.90
22161;DHT22;49035;48.812;11.762;2024-02-26T08:36:36;5.80;99.90
22161;DHT22;49035;48.812;11.762;2024-02-26T08:39:02;5.90;99.90
22161;DHT22;49035;48.812;11.762;2024-02-26T08:41:28;5.80;99.90
22161;DHT22;49035;48.812;11.762;2024-02-26T08:43:53;6.00;99.90
22161;DHT22;49035;48.812;11.762;2024-02-26T08:46:20;6.50;99.90
22161;DHT22;49035;48.812;11.762;2024-02-26T08:48:46;6.40;99.90
22161;DHT22;49035;48.812;11.762;2024-02-26T08:51:11;6.80;99.90
22161;DHT22;49035;48.812;11.762;2024-02-26T08:53:38;7.10;99.90
22161;DHT22;49035;48.812;11.762;2024-02-26T08:56:04;7.30;99.90
22161;DHT22;49035;48.812;11.762;2024-02-26T08:58:30;7.40;99.90
22161;DHT22;49035;48.812;11.762;2024-02-26T09:00:56;7.40;99.90
22161;DHT22;49035;48.812;11.762;2024-02-26T09:03:22;7.30;99.90
22161;DHT22;49035;48.812;11.762;2024-02-26T09:05:48;7.50;99.90
22161;DHT22;49035;48.812;11.762;2024-02-26T09:08:13;7.20;99.90
22161;DHT22;49035;48.812;11.762;2024-02-26T09:10:40;7.30;99.90
22161;DHT22;49035;48.812;11.762;2024-02-26T09:13:05;6.70;99.90
22161;DHT22;49035;48.812;11.762;2024-02-26T09:15:31;6.60;99.90
22161;DHT22;49035;48.812;11.762;2024-02-26T09:17:57;7.00;99.90
22161;DHT22;49035;48.812;11.762;2024-02-26T09:20:23;7.00;99.90
22161;DHT22;49035;48.812;11.762;2024-02-26T09:22:49;6.90;99.90
22161;DHT22;49035;48.812;11.762;2024-02-26T09:25:16;7.10;99.90
22161;DHT22;49035;48.812;11.762;2024-02-26T09:27:42;7.00;99.90
22161;DHT22;49035;48.812;11.762;2024-02-26T09:30:12;7.20;99.90
22161;DHT22;49035;48.812;11.762;2024-02-26T09:32:38;7.30;99.90
22161;DHT22;49035;48.812;11.762;2024-02-26T09:35:05;7.50;99.90
22161;DHT22;49035;48.812;11.762;2024-02-26T09:37:31;7.80;99.90
22161;DHT22;49035;48.812;11.762;2024-02-26T09:39:56;8.00;99.90
22161;DHT22;49035;48.812;11.762;2024-02-26T09:42:25;7.90;99.90
22161;DHT22;49035;48.812;11.762;2024-02-26T09:44:54;8.10;99.90
22161;DHT22;49035;48.812;11.762;2024-02-26T09:47:23;7.50;99.90
22161;DHT22;49035;48.812;11.762;2024-02-26T09:49:53;7.70;99.90
22161;DHT22;49035;48.812;11.762;2024-02-26T09:52:20;8.00;99.90
22161;DHT22;49035;48.812;11.762;2024-02-26T09:54:49;8.20;99.90
22161;DHT22;49035;48.812;11.762;2024-02-26T09:57:15;8.50;99.90
22161;DHT22;49035;48.812;11.762;2024-02-26T09:59:43;8.70;99.90
22161;DHT22;49035;48.812;11.762;2024-02-26T10:02:13;9.20;99.90
22161;DHT22;49035;48.812;11.762;2024-02-26T10:04:40;9.70;99.90
22161;DHT22;49035;48.812;11.762;2024-02-26T10:07:10;9.80;99.90
22161;DHT22;49035;48.812;11.762;2024-02-26T10:09:37;10.10;99.90
22161;DHT22;49035;48.812;11.762;2024-02-26T10:12:04;10.30;99.90
22161;DHT22;49035;48.812;11.762;2024-02-26T10:14:30;10.40;99.90
22161;DHT22;49035;48.812;11.762;2024-02-26T10:16:56;10.70;99.90
22161;DHT22;49035;48.812;11.762;2024-02-26T10:19:31;11.00;99.90
22161;DHT22;49035;48.812;11.762;2024-02-26T10:21:57;11.10;99.90
22161;DHT22;49035;48.812;11.762;2024-02-26T10:24:27;11.20;99.90
22161;DHT22;49035;48.812;11.762;2024-02-26T10:26:54;11.40;99.90
22161;DHT22;49035;48.812;11.762;2024-02-26T10:29:21;11.50;98.20
22161;DHT22;49035;48.812;11.762;2024-02-26T10:31:46;11.80;97.50
22161;DHT22;49035;48.812;11.762;2024-02-26T10:34:12;12.00;97.20
22161;DHT22;49035;48.812;11.762;2024-02-26T10:36:38;12.30;95.50
22161;DHT22;49035;48.812;11.762;2024-02-26T10:39:06;12.60;94.70
22161;DHT22;49035;48.812;11.762;2024-02-26T10:41:35;12.40;94.00
22161;DHT22;49035;48.812;11.762;2024-02-26T10:44:01;12.30;94.90
22161;DHT22;49035;48.812;11.762;2024-02-26T10:46:27;12.10;94.30
22161;DHT22;49035;48.812;11.762;2024-02-26T10:48:53;12.30;95.20
22161;DHT22;49035;48.812;11.762;2024-02-26T10:51:29;12.10;93.80
22161;DHT22;49035;48.812;11.762;2024-02-26T10:53:57;12.10;94.30
22161;DHT22;49035;48.812;11.762;2024-02-26T10:56:28;12.10;94.30
22161;DHT22;49035;48.812;11.762;2024-02-26T10:58:58;12.40;94.10
22161;DHT22;49035;48.812;11.762;2024-02-26T11:01:24;11.80;91.80
22161;DHT22;49035;48.812;11.762;2024-02-26T11:03:55;11.60;93.80
22161;DHT22;49035;48.812;11.762;2024-02-26T11:06:22;11.50;94.20
22161;DHT22;49035;48.812;11.762;2024-02-26T11:08:49;11.30;95.10
22161;DHT22;49035;48.812;11.762;2024-02-26T11:11:16;10.90;94.90
22161;DHT22;49035;48.812;11.762;2024-02-26T11:13:47;10.50;96.10
22161;DHT22;49035;48.812;11.762;2024-02-26T11:16:21;10.50;96.70
22161;DHT22;49035;48.812;11.762;2024-02-26T11:18:48;10.40;96.70
22161;DHT22;49035;48.812;11.762;2024-02-26T11:21:17;10.20;96.40
22161;DHT22;49035;48.812;11.762;2024-02-26T11:23:46;10.10;97.40
22161;DHT22;49035;48.812;11.762;2024-02-26T11:26:14;10.30;98.30
22161;DHT22;49035;48.812;11.762;2024-02-26T11:28:40;10.40;97.20
22161;DHT22;49035;48.812;11.762;2024-02-26T11:31:07;10.60;97.20
22161;DHT22;49035;48.812;11.762;2024-02-26T11:33:34;10.80;98.20
22161;DHT22;49035;48.812;11.762;2024-02-26T11:36:02;10.90;97.30
22161;DHT22;49035;48.812;11.762;2024-02-26T11:38:28;10.90;96.90
22161;DHT22;49035;48.812;11.762;2024-02-26T11:40:54;10.80;97.30
22161;DHT22;49035;48.812;11.762;2024-02-26T11:43:49;10.70;97.20
22161;DHT22;49035;48.812;11.762;2024-02-26T11:46:46;10.70;96.90
22161;DHT22;49035;48.812;11.762;2024-02-26T11:49:29;10.70;98.80
22161;DHT22;49035;48.812;11.762;2024-02-26T11:51:56;10.90;98.00
22161;DHT22;49035;48.812;11.762;2024-02-26T12:00:13;11.00;96.40
22161;DHT22;49035;48.812;11.762;2024-02-26T12:05:20;11.10;96.20
22161;DHT22;49035;48.812;11.762;2024-02-26T12:08:09;11.10;95.90
22161;DHT22;49035;48.812;11.762;2024-02-26T12:10:37;11.20;96.30
22161;DHT22;49035;48.812;11.762;2024-02-26T12:13:12;11.30;96.80
22161;DHT22;49035;48.812;11.762;2024-02-26T12:15:43;11.30;95.70
22161;DHT22;49035;48.812;11.762;2024-02-26T12:18:17;11.50;96.60
22161;DHT22;49035;48.812;11.762;2024-02-26T12:20:43;11.80;95.10
22161;DHT22;49035;48.812;11.762;2024-02-26T12:23:16;11.80;95.60
22161;DHT22;49035;48.812;11.762;2024-02-26T12:25:43;12.00;94.20
22161;DHT22;49035;48.812;11.762;2024-02-26T12:28:09;12.60;94.40
22161;DHT22;49035;48.812;11.762;2024-02-26T12:30:35;12.90;92.60
22161;DHT22;49035;48.812;11.762;2024-02-26T12:33:01;12.90;93.50
22161;DHT22;49035;48.812;11.762;2024-02-26T12:35:28;12.50;92.40
22161;DHT22;49035;48.812;11.762;2024-02-26T12:37:56;12.20;92.70
22161;DHT22;49035;48.812;11.762;2024-02-26T12:40:22;12.00;92.80
22161;DHT22;49035;48.812;11.762;2024-02-26T12:42:48;12.00;94.60
22161;DHT22;49035;48.812;11.762;2024-02-26T12:45:14;12.00;93.80
22161;DHT22;49035;48.812;11.762;2024-02-26T12:47:44;12.10;94.00
22161;DHT22;49035;48.812;11.762;2024-02-26T12:50:15;11.90;92.90
22161;DHT22;49035;48.812;11.762;2024-02-26T12:52:45;12.00;94.30
22161;DHT22;49035;48.812;11.762;2024-02-26T12:55:14;12.10;92.20
22161;DHT22;49035;48.812;11.762;2024-02-26T12:57:41;12.20;92.40
22161;DHT22;49035;48.812;11.762;2024-02-26T13:00:12;12.20;91.90
22161;DHT22;49035;48.812;11.762;2024-02-26T13:02:38;12.20;91.40
22161;DHT22;49035;48.812;11.762;2024-02-26T13:05:06;12.10;90.90
22161;DHT22;49035;48.812;11.762;2024-02-26T13:07:33;12.10;91.50
22161;DHT22;49035;48.812;11.762;2024-02-26T13:09:59;12.10;92.20
22161;DHT22;49035;48.812;11.762;2024-02-26T13:12:25;12.30;91.20
22161;DHT22;49035;48.812;11.762;2024-02-26T13:15:02;12.40;89.70
22161;DHT22;49035;48.812;11.762;2024-02-26T13:17:31;12.10;91.00
22161;DHT22;49035;48.812;11.762;2024-02-26T13:19:56;12.20;91.10
22161;DHT22;49035;48.812;11.762;2024-02-26T13:22:22;12.20;90.90
22161;DHT22;49035;48.812;11.762;2024-02-26T13:24:55;12.20;91.30
22161;DHT22;49035;48.812;11.762;2024-02-26T13:27:25;12.20;91.50
22161;DHT22;49035;48.812;11.762;2024-02-26T13:30:11;12.30;90.10
22161;DHT22;49035;48.812;11.762;2024-02-26T13:32:39;12.00;90.20
22161;DHT22;49035;48.812;11.762;2024-02-26T13:35:06;11.80;91.10
22161;DHT22;49035;48.812;11.762;2024-02-26T13:37:33;11.80;90.70
22161;DHT22;49035;48.812;11.762;2024-02-26T13:39:59;11.50;91.90
22161;DHT22;49035;48.812;11.762;2024-02-26T13:42:24;11.30;91.50
22161;DHT22;49035;48.812;11.762;2024-02-26T13:44:50;11.40;91.80
22161;DHT22;49035;48.812;11.762;2024-02-26T13:47:16;11.50;92.10
22161;DHT22;49035;48.812;11.762;2024-02-26T13:49:41;11.50;90.70
22161;DHT22;49035;48.812;11.762;2024-02-26T13:52:07;11.50;91.60
22161;DHT22;49035;48.812;11.762;2024-02-26T13:54:33;11.30;91.50
22161;DHT22;49035;48.812;11.762;2024-02-26T13:56:59;11.40;92.60
22161;DHT22;49035;48.812;11.762;2024-02-26T13:59:25;11.40;91.90
22161;DHT22;49035;48.812;11.762;2024-02-26T14:01:50;11.50;92.00
22161;DHT22;49035;48.812;11.762;2024-02-26T14:04:18;11.60;91.60
22161;DHT22;49035;48.812;11.762;2024-02-26T14:06:44;11.60;92.00
22161;DHT22;49035;48.812;11.762;2024-02-26T14:09:09;11.70;91.70
22161;DHT22;49035;48.812;11.762;2024-02-26T14:11:35;11.80;92.50
22161;DHT22;49035;48.812;11.762;2024-02-26T14:14:01;12.00;91.50
22161;DHT22;49035;48.812;11.762;2024-02-26T14:16:27;12.00;91.00
22161;DHT22;49035;48.812;11.762;2024-02-26T14:18:53;12.20;92.70
22161;DHT22;49035;48.812;11.762;2024-02-26T14:21:18;12.30;90.50
22161;DHT22;49035;48.812;11.762;2024-02-26T14:23:44;12.20;91.30
22161;DHT22;49035;48.812;11.762;2024-02-26T14:26:10;12.10;91.10
22161;DHT22;49035;48.812;11.762;2024-02-26T14:28:36;12.00;91.80
22161;DHT22;49035;48.812;11.762;2024-02-26T14:31:02;12.00;92.40
22161;DHT22;49035;48.812;11.762;2024-02-26T14:33:29;11.90;92.50
22161;DHT22;49035;48.812;11.762;2024-02-26T14:35:56;11.70;93.40
22161;DHT22;49035;48.812;11.762;2024-02-26T14:38:21;11.70;92.60
22161;DHT22;49035;48.812;11.762;2024-02-26T14:40:49;11.70;92.20
22161;DHT22;49035;48.812;11.762;2024-02-26T14:43:14;11.70;93.10
22161;DHT22;49035;48.812;11.762;2024-02-26T14:45:40;11.60;92.70
22161;DHT22;49035;48.812;11.762;2024-02-26T14:48:07;11.60;93.40
22161;DHT22;49035;48.812;11.762;2024-02-26T14:50:33;11.50;93.10
22161;DHT22;49035;48.812;11.762;2024-02-26T14:52:59;11.20;92.70
22161;DHT22;49035;48.812;11.762;2024-02-26T14:55:25;11.10;93.40
22161;DHT22;49035;48.812;11.762;2024-02-26T14:57:51;10.90;93.30
22161;DHT22;49035;48.812;11.762;2024-02-26T15:00:17;10.90;93.50
22161;DHT22;49035;48.812;11.762;2024-02-26T15:02:42;10.90;94.10
22161;DHT22;49035;48.812;11.762;2024-02-26T15:05:08;10.90;92.90
22161;DHT22;49035;48.812;11.762;2024-02-26T15:07:36;11.00;93.30
22161;DHT22;49035;48.812;11.762;2024-02-26T15:10:08;11.00;92.90
22161;DHT22;49035;48.812;11.762;2024-02-26T15:12:34;11.10;92.10
22161;DHT22;49035;48.812;11.762;2024-02-26T15:15:00;11.10;92.00
22161;DHT22;49035;48.812;11.762;2024-02-26T15:17:26;11.00;92.10
22161;DHT22;49035;48.812;11.762;2024-02-26T15:19:53;11.10;92.40
22161;DHT22;49035;48.812;11.762;2024-02-26T15:22:21;11.10;91.90
22161;DHT22;49035;48.812;11.762;2024-02-26T15:24:47;11.00;91.60
22161;DHT22;49035;48.812;11.762;2024-02-26T15:27:13;11.10;91.70
22161;DHT22;49035;48.812;11.762;2024-02-26T15:29:39;10.90;91.70